sensor_id;sensor_type;location;lat;lon;timestamp;P1;durP1;ratioP1;P2;durP2;ratioP2
42134;SDS011;28312;43.460;11.810;2023-11-22T00:03:35;1.08;;;0.60;;
42134;SDS011;28312;43.460;11.810;2023-11-22T00:07:39;1.17;;;0.57;;
42134;SDS011;28312;43.460;11.810;2023-11-22T00:11:42;1.23;;;0.63;;
42134;SDS011;28312;43.460;11.810;2023-11-22T00:15:46;1.48;;;0.50;;
42134;SDS011;28312;43.460;11.810;2023-11-22T00:19:50;0.43;;;0.43;;
42134;SDS011;28312;43.460;11.810;2023-11-22T00:23:54;0.55;;;0.40;;
42134;SDS011;28312;43.460;11.810;2023-11-22T00:27:58;0.32;;;0.30;;
42134;SDS011;28312;43.460;11.810;2023-11-22T00:32:02;0.63;;;0.40;;
42134;SDS011;28312;43.460;11.810;2023-11-22T00:36:05;0.63;;;0.40;;
42134;SDS011;28312;43.460;11.810;2023-11-22T00:40:11;0.40;;;0.40;;
42134;SDS011;28312;43.460;11.810;2023-11-22T00:44:15;0.30;;;0.30;;
42134;SDS011;28312;43.460;11.810;2023-11-22T00:48:22;0.43;;;0.30;;
42134;SDS011;28312;43.460;11.810;2023-11-22T00:52:26;0.38;;;0.30;;
42134;SDS011;28312;43.460;11.810;2023-11-22T00:56:33;0.30;;;0.30;;
42134;SDS011;28312;43.460;11.810;2023-11-22T01:00:37;0.30;;;0.30;;
42134;SDS011;28312;43.460;11.810;2023-11-22T01:04:41;0.30;;;0.30;;
42134;SDS011;28312;43.460;11.810;2023-11-22T01:08:45;0.30;;;0.30;;
42134;SDS011;28312;43.460;11.810;2023-11-22T01:12:51;0.30;;;0.30;;
42134;SDS011;28312;43.460;11.810;2023-11-22T01:16:56;0.22;;;0.22;;
42134;SDS011;28312;43.460;11.810;2023-11-22T01:21:01;0.30;;;0.30;;
42134;SDS011;28312;43.460;11.810;2023-11-22T01:25:07;1.05;;;0.40;;
42134;SDS011;28312;43.460;11.810;2023-11-22T01:29:13;0.20;;;0.20;;
42134;SDS011;28312;43.460;11.810;2023-11-22T01:33:17;0.38;;;0.38;;
42134;SDS011;28312;43.460;11.810;2023-11-22T01:37:21;0.30;;;0.30;;
42134;SDS011;28312;43.460;11.810;2023-11-22T01:41:25;0.32;;;0.30;;
42134;SDS011;28312;43.460;11.810;2023-11-22T01:45:29;0.30;;;0.30;;
42134;SDS011;28312;43.460;11.810;2023-11-22T01:49:34;0.28;;;0.28;;
42134;SDS011;28312;43.460;11.810;2023-11-22T01:53:38;0.30;;;0.30;;
42134;SDS011;28312;43.460;11.810;2023-11-22T01:57:42;0.30;;;0.30;;
42134;SDS011;28312;43.460;11.810;2023-11-22T02:01:46;0.30;;;0.30;;
42134;SDS011;28312;43.460;11.810;2023-11-22T02:05:52;0.40;;;0.40;;
42134;SDS011;28312;43.460;11.810;2023-11-22T02:10:00;0.32;;;0.32;;
42134;SDS011;28312;43.460;11.810;2023-11-22T02:14:10;0.30;;;0.30;;
42134;SDS011;28312;43.460;11.810;2023-11-22T02:18:14;0.38;;;0.38;;
42134;SDS011;28312;43.460;11.810;2023-11-22T02:22:17;0.30;;;0.30;;
42134;SDS011;28312;43.460;11.810;2023-11-22T02:26:22;0.30;;;0.30;;
42134;SDS011;28312;43.460;11.810;2023-11-22T02:30:26;0.30;;;0.30;;
42134;SDS011;28312;43.460;11.810;2023-11-22T02:34:30;0.30;;;0.30;;
42134;SDS011;28312;43.460;11.810;2023-11-22T02:38:34;0.45;;;0.35;;
42134;SDS011;28312;43.460;11.810;2023-11-22T02:42:40;0.30;;;0.30;;
42134;SDS011;28312;43.460;11.810;2023-11-22T02:46:43;0.30;;;0.30;;
42134;SDS011;28312;43.460;11.810;2023-11-22T02:50:47;0.65;;;0.50;;
42134;SDS011;28312;43.460;11.810;2023-11-22T02:54:51;0.30;;;0.30;;
42134;SDS011;28312;43.460;11.810;2023-11-22T02:59:00;0.25;;;0.25;;
42134;SDS011;28312;43.460;11.810;2023-11-22T03:03:04;0.30;;;0.30;;
42134;SDS011;28312;43.460;11.810;2023-11-22T03:07:12;0.38;;;0.38;;
42134;SDS011;28312;43.460;11.810;2023-11-22T03:11:16;0.40;;;0.40;;
42134;SDS011;28312;43.460;11.810;2023-11-22T03:15:22;0.43;;;0.43;;
42134;SDS011;28312;43.460;11.810;2023-11-22T03:19:26;0.30;;;0.30;;
42134;SDS011;28312;43.460;11.810;2023-11-22T03:23:31;0.50;;;0.50;;
42134;SDS011;28312;43.460;11.810;2023-11-22T03:27:34;0.50;;;0.40;;
42134;SDS011;28312;43.460;11.810;2023-11-22T03:31:38;0.30;;;0.30;;
42134;SDS011;28312;43.460;11.810;2023-11-22T03:35:43;1.00;;;0.60;;
42134;SDS011;28312;43.460;11.810;2023-11-22T03:39:47;1.52;;;0.65;;
42134;SDS011;28312;43.460;11.810;2023-11-22T03:43:51;0.57;;;0.50;;
42134;SDS011;28312;43.460;11.810;2023-11-22T03:47:56;0.50;;;0.30;;
42134;SDS011;28312;43.460;11.810;2023-11-22T03:52:02;1.08;;;0.70;;
42134;SDS011;28312;43.460;11.810;2023-11-22T03:56:07;0.30;;;0.30;;
42134;SDS011;28312;43.460;11.810;2023-11-22T04:00:11;0.45;;;0.45;;
42134;SDS011;28312;43.460;11.810;2023-11-22T04:04:17;0.40;;;0.40;;
42134;SDS011;28312;43.460;11.810;2023-11-22T04:08:23;0.38;;;0.30;;
42134;SDS011;28312;43.460;11.810;2023-11-22T04:12:28;0.52;;;0.40;;
42134;SDS011;28312;43.460;11.810;2023-11-22T04:16:35;0.40;;;0.40;;
42134;SDS011;28312;43.460;11.810;2023-11-22T04:20:41;0.45;;;0.38;;
42134;SDS011;28312;43.460;11.810;2023-11-22T04:24:47;0.30;;;0.30;;
42134;SDS011;28312;43.460;11.810;2023-11-22T04:28:51;0.32;;;0.32;;
42134;SDS011;28312;43.460;11.810;2023-11-22T04:32:55;0.45;;;0.40;;
42134;SDS011;28312;43.460;11.810;2023-11-22T04:36:59;2.03;;;0.50;;
42134;SDS011;28312;43.460;11.810;2023-11-22T04:41:03;0.68;;;0.50;;
42134;SDS011;28312;43.460;11.810;2023-11-22T04:45:07;0.40;;;0.40;;
42134;SDS011;28312;43.460;11.810;2023-11-22T04:49:10;0.40;;;0.40;;
42134;SDS011;28312;43.460;11.810;2023-11-22T04:53:15;0.30;;;0.30;;
42134;SDS011;28312;43.460;11.810;2023-11-22T04:57:19;0.40;;;0.40;;
42134;SDS011;28312;43.460;11.810;2023-11-22T05:01:23;1.35;;;0.40;;
42134;SDS011;28312;43.460;11.810;2023-11-22T05:05:28;0.40;;;0.40;;
42134;SDS011;28312;43.460;11.810;2023-11-22T05:09:31;0.35;;;0.35;;
42134;SDS011;28312;43.460;11.810;2023-11-22T05:13:38;0.35;;;0.35;;
42134;SDS011;28312;43.460;11.810;2023-11-22T05:17:41;0.57;;;0.47;;
42134;SDS011;28312;43.460;11.810;2023-11-22T05:21:45;2.08;;;0.47;;
42134;SDS011;28312;43.460;11.810;2023-11-22T05:25:48;0.45;;;0.40;;
42134;SDS011;28312;43.460;11.810;2023-11-22T05:29:52;0.40;;;0.40;;
42134;SDS011;28312;43.460;11.810;2023-11-22T05:33:57;0.40;;;0.40;;
42134;SDS011;28312;43.460;11.810;2023-11-22T05:38:00;0.82;;;0.45;;
42134;SDS011;28312;43.460;11.810;2023-11-22T05:42:05;0.40;;;0.40;;
42134;SDS011;28312;43.460;11.810;2023-11-22T05:46:11;0.50;;;0.40;;
42134;SDS011;28312;43.460;11.810;2023-11-22T05:50:16;0.40;;;0.40;;
42134;SDS011;28312;43.460;11.810;2023-11-22T05:54:20;0.88;;;0.68;;
42134;SDS011;28312;43.460;11.810;2023-11-22T05:58:25;0.30;;;0.30;;
42134;SDS011;28312;43.460;11.810;2023-11-22T06:02:30;0.40;;;0.40;;
42134;SDS011;28312;43.460;11.810;2023-11-22T06:06:33;0.38;;;0.38;;
42134;SDS011;28312;43.460;11.810;2023-11-22T06:10:37;0.93;;;0.50;;
42134;SDS011;28312;43.460;11.810;2023-11-22T06:14:44;0.85;;;0.52;;
42134;SDS011;28312;43.460;11.810;2023-11-22T06:18:49;0.50;;;0.50;;
42134;SDS011;28312;43.460;11.810;2023-11-22T06:22:53;2.38;;;0.68;;
42134;SDS011;28312;43.460;11.810;2023-11-22T06:26:59;1.43;;;0.70;;
42134;SDS011;28312;43.460;11.810;2023-11-22T06:31:04;1.05;;;0.75;;
42134;SDS011;28312;43.460;11.810;2023-11-22T06:35:08;0.70;;;0.60;;
42134;SDS011;28312;43.460;11.810;2023-11-22T06:39:14;3.30;;;1.20;;
42134;SDS011;28312;43.460;11.810;2023-11-22T06:43:18;2.38;;;0.88;;
42134;SDS011;28312;43.460;11.810;2023-11-22T06:47:22;0.60;;;0.55;;
42134;SDS011;28312;43.460;11.810;2023-11-22T06:51:26;1.20;;;0.75;;
42134;SDS011;28312;43.460;11.810;2023-11-22T06:55:29;0.93;;;0.60;;
42134;SDS011;28312;43.460;11.810;2023-11-22T06:59:35;2.22;;;0.70;;
42134;SDS011;28312;43.460;11.810;2023-11-22T07:03:40;1.48;;;0.90;;
42134;SDS011;28312;43.460;11.810;2023-11-22T07:07:44;1.75;;;0.98;;
42134;SDS011;28312;43.460;11.810;2023-11-22T07:11:47;2.45;;;1.10;;
42134;SDS011;28312;43.460;11.810;2023-11-22T07:15:52;1.10;;;0.65;;
42134;SDS011;28312;43.460;11.810;2023-11-22T07:19:56;0.98;;;0.60;;
42134;SDS011;28312;43.460;11.810;2023-11-22T07:24:00;1.40;;;0.85;;
42134;SDS011;28312;43.460;11.810;2023-11-22T07:28:03;5.03;;;2.58;;
42134;SDS011;28312;43.460;11.810;2023-11-22T07:32:07;1.50;;;1.02;;
42134;SDS011;28312;43.460;11.810;2023-11-22T07:36:14;1.00;;;0.65;;
42134;SDS011;28312;43.460;11.810;2023-11-22T07:40:18;2.15;;;0.85;;
42134;SDS011;28312;43.460;11.810;2023-11-22T07:44:22;1.88;;;1.15;;
42134;SDS011;28312;43.460;11.810;2023-11-22T07:48:26;1.75;;;0.80;;
42134;SDS011;28312;43.460;11.810;2023-11-22T07:52:30;1.08;;;0.70;;
42134;SDS011;28312;43.460;11.810;2023-11-22T07:56:35;0.93;;;0.70;;
42134;SDS011;28312;43.460;11.810;2023-11-22T08:00:38;1.70;;;0.80;;
42134;SDS011;28312;43.460;11.810;2023-11-22T08:04:45;0.75;;;0.60;;
42134;SDS011;28312;43.460;11.810;2023-11-22T08:08:50;0.82;;;0.63;;
42134;SDS011;28312;43.460;11.810;2023-11-22T08:12:54;0.82;;;0.57;;
42134;SDS011;28312;43.460;11.810;2023-11-22T08:16:57;2.17;;;0.70;;
42134;SDS011;28312;43.460;11.810;2023-11-22T08:21:00;1.77;;;0.75;;
42134;SDS011;28312;43.460;11.810;2023-11-22T08:25:04;1.02;;;0.70;;
42134;SDS011;28312;43.460;11.810;2023-11-22T08:29:10;1.75;;;1.08;;
42134;SDS011;28312;43.460;11.810;2023-11-22T08:33:14;0.90;;;0.70;;
42134;SDS011;28312;43.460;11.810;2023-11-22T08:37:17;0.88;;;0.60;;
42134;SDS011;28312;43.460;11.810;2023-11-22T08:41:21;1.88;;;1.00;;
42134;SDS011;28312;43.460;11.810;2023-11-22T08:45:26;1.08;;;0.70;;
42134;SDS011;28312;43.460;11.810;2023-11-22T08:49:33;2.42;;;0.90;;
42134;SDS011;28312;43.460;11.810;2023-11-22T08:53:37;1.55;;;0.80;;
42134;SDS011;28312;43.460;11.810;2023-11-22T08:57:41;0.70;;;0.60;;
42134;SDS011;28312;43.460;11.810;2023-11-22T09:01:45;1.38;;;0.73;;
42134;SDS011;28312;43.460;11.810;2023-11-22T09:05:51;1.37;;;0.70;;
42134;SDS011;28312;43.460;11.810;2023-11-22T09:09:56;0.93;;;0.60;;
42134;SDS011;28312;43.460;11.810;2023-11-22T09:14:01;0.60;;;0.52;;
42134;SDS011;28312;43.460;11.810;2023-11-22T09:18:07;1.85;;;0.93;;
42134;SDS011;28312;43.460;11.810;2023-11-22T09:22:11;1.10;;;0.70;;
42134;SDS011;28312;43.460;11.810;2023-11-22T09:26:15;1.35;;;0.85;;
42134;SDS011;28312;43.460;11.810;2023-11-22T09:30:19;2.10;;;0.93;;
42134;SDS011;28312;43.460;11.810;2023-11-22T09:34:45;1.55;;;0.88;;
42134;SDS011;28312;43.460;11.810;2023-11-22T09:38:48;1.10;;;0.77;;
42134;SDS011;28312;43.460;11.810;2023-11-22T09:42:53;2.60;;;0.90;;
42134;SDS011;28312;43.460;11.810;2023-11-22T09:46:58;2.20;;;0.95;;
42134;SDS011;28312;43.460;11.810;2023-11-22T09:51:03;1.83;;;0.80;;
42134;SDS011;28312;43.460;11.810;2023-11-22T09:55:11;1.20;;;0.80;;
42134;SDS011;28312;43.460;11.810;2023-11-22T09:59:15;1.00;;;0.60;;
42134;SDS011;28312;43.460;11.810;2023-11-22T10:03:20;1.05;;;0.60;;
42134;SDS011;28312;43.460;11.810;2023-11-22T10:07:27;1.60;;;0.80;;
42134;SDS011;28312;43.460;11.810;2023-11-22T10:11:31;1.25;;;0.80;;
42134;SDS011;28312;43.460;11.810;2023-11-22T10:15:34;1.15;;;0.80;;
42134;SDS011;28312;43.460;11.810;2023-11-22T10:19:38;1.23;;;0.70;;
42134;SDS011;28312;43.460;11.810;2023-11-22T10:23:42;1.33;;;0.60;;
42134;SDS011;28312;43.460;11.810;2023-11-22T10:27:46;1.70;;;0.80;;
42134;SDS011;28312;43.460;11.810;2023-11-22T10:31:50;1.17;;;0.65;;
42134;SDS011;28312;43.460;11.810;2023-11-22T10:35:54;0.80;;;0.60;;
42134;SDS011;28312;43.460;11.810;2023-11-22T10:39:57;2.58;;;0.82;;
42134;SDS011;28312;43.460;11.810;2023-11-22T10:44:01;1.13;;;0.68;;
42134;SDS011;28312;43.460;11.810;2023-11-22T10:48:06;0.70;;;0.47;;
42134;SDS011;28312;43.460;11.810;2023-11-22T10:52:13;1.17;;;0.73;;
42134;SDS011;28312;43.460;11.810;2023-11-22T10:56:18;1.77;;;0.68;;
42134;SDS011;28312;43.460;11.810;2023-11-22T11:00:24;1.05;;;0.70;;
42134;SDS011;28312;43.460;11.810;2023-11-22T11:04:33;1.10;;;0.77;;
42134;SDS011;28312;43.460;11.810;2023-11-22T11:08:43;1.10;;;0.70;;
42134;SDS011;28312;43.460;11.810;2023-11-22T11:12:48;1.38;;;0.68;;
42134;SDS011;28312;43.460;11.810;2023-11-22T11:16:52;0.70;;;0.70;;
42134;SDS011;28312;43.460;11.810;2023-11-22T11:20:58;2.00;;;1.10;;
42134;SDS011;28312;43.460;11.810;2023-11-22T11:25:04;1.50;;;0.80;;
42134;SDS011;28312;43.460;11.810;2023-11-22T11:29:08;1.48;;;0.85;;
42134;SDS011;28312;43.460;11.810;2023-11-22T11:37:59;2.00;;;0.98;;
42134;SDS011;28312;43.460;11.810;2023-11-22T11:42:10;1.80;;;0.90;;
42134;SDS011;28312;43.460;11.810;2023-11-22T11:46:20;1.23;;;0.50;;
42134;SDS011;28312;43.460;11.810;2023-11-22T11:50:25;1.20;;;0.77;;
42134;SDS011;28312;43.460;11.810;2023-11-22T11:54:29;1.55;;;0.90;;
42134;SDS011;28312;43.460;11.810;2023-11-22T11:58:33;0.52;;;0.47;;
42134;SDS011;28312;43.460;11.810;2023-11-22T12:02:37;1.50;;;0.60;;
42134;SDS011;28312;43.460;11.810;2023-11-22T12:06:41;3.67;;;0.80;;
42134;SDS011;28312;43.460;11.810;2023-11-22T12:10:49;1.38;;;0.70;;
42134;SDS011;28312;43.460;11.810;2023-11-22T12:14:53;2.10;;;0.90;;
42134;SDS011;28312;43.460;11.810;2023-11-22T12:18:58;1.30;;;0.68;;
42134;SDS011;28312;43.460;11.810;2023-11-22T12:23:02;1.00;;;0.50;;
42134;SDS011;28312;43.460;11.810;2023-11-22T12:27:08;2.70;;;0.80;;
42134;SDS011;28312;43.460;11.810;2023-11-22T12:31:13;1.25;;;0.70;;
42134;SDS011;28312;43.460;11.810;2023-11-22T12:35:18;1.88;;;0.95;;
42134;SDS011;28312;43.460;11.810;2023-11-22T12:39:21;1.50;;;0.82;;
42134;SDS011;28312;43.460;11.810;2023-11-22T12:43:26;1.98;;;0.85;;
42134;SDS011;28312;43.460;11.810;2023-11-22T12:47:38;2.25;;;1.15;;
42134;SDS011;28312;43.460;11.810;2023-11-22T12:51:46;1.90;;;0.90;;
42134;SDS011;28312;43.460;11.810;2023-11-22T12:56:00;1.63;;;0.90;;
42134;SDS011;28312;43.460;11.810;2023-11-22T13:00:05;2.17;;;0.93;;
42134;SDS011;28312;43.460;11.810;2023-11-22T13:04:09;2.38;;;1.48;;
42134;SDS011;28312;43.460;11.810;2023-11-22T13:08:13;2.05;;;1.30;;
42134;SDS011;28312;43.460;11.810;2023-11-22T13:12:18;2.03;;;1.10;;
42134;SDS011;28312;43.460;11.810;2023-11-22T13:16:22;2.83;;;1.20;;
42134;SDS011;28312;43.460;11.810;2023-11-22T13:20:25;1.98;;;1.23;;
42134;SDS011;28312;43.460;11.810;2023-11-22T13:24:29;2.70;;;0.90;;
42134;SDS011;28312;43.460;11.810;2023-11-22T13:28:32;2.70;;;1.45;;
42134;SDS011;28312;43.460;11.810;2023-11-22T13:32:36;2.50;;;0.95;;
42134;SDS011;28312;43.460;11.810;2023-11-22T13:36:39;1.27;;;0.65;;
42134;SDS011;28312;43.460;11.810;2023-11-22T13:40:43;2.22;;;0.88;;
42134;SDS011;28312;43.460;11.810;2023-11-22T13:44:49;1.80;;;0.70;;
42134;SDS011;28312;43.460;11.810;2023-11-22T13:48:53;1.10;;;0.70;;
42134;SDS011;28312;43.460;11.810;2023-11-22T13:52:56;2.22;;;1.13;;
42134;SDS011;28312;43.460;11.810;2023-11-22T13:57:01;1.38;;;0.77;;
42134;SDS011;28312;43.460;11.810;2023-11-22T14:01:05;1.60;;;0.65;;
42134;SDS011;28312;43.460;11.810;2023-11-22T14:05:12;1.65;;;0.95;;
42134;SDS011;28312;43.460;11.810;2023-11-22T14:09:19;1.77;;;0.85;;
42134;SDS011;28312;43.460;11.810;2023-11-22T14:13:27;1.52;;;0.82;;
42134;SDS011;28312;43.460;11.810;2023-11-22T14:17:31;2.65;;;0.77;;
42134;SDS011;28312;43.460;11.810;2023-11-22T14:21:35;1.75;;;0.90;;
42134;SDS011;28312;43.460;11.810;2023-11-22T14:25:38;2.22;;;0.93;;
42134;SDS011;28312;43.460;11.810;2023-11-22T14:29:44;1.23;;;0.60;;
42134;SDS011;28312;43.460;11.810;2023-11-22T14:33:53;1.48;;;0.93;;
42134;SDS011;28312;43.460;11.810;2023-11-22T14:37:59;1.35;;;0.80;;
42134;SDS011;28312;43.460;11.810;2023-11-22T14:42:03;4.82;;;1.17;;
42134;SDS011;28312;43.460;11.810;2023-11-22T14:46:09;2.50;;;0.98;;
42134;SDS011;28312;43.460;11.810;2023-11-22T14:50:12;1.17;;;0.75;;
42134;SDS011;28312;43.460;11.810;2023-11-22T14:54:22;2.25;;;1.05;;
42134;SDS011;28312;43.460;11.810;2023-11-22T14:58:25;1.88;;;1.02;;
42134;SDS011;28312;43.460;11.810;2023-11-22T15:02:29;1.73;;;1.02;;
42134;SDS011;28312;43.460;11.810;2023-11-22T15:06:34;3.72;;;1.20;;
42134;SDS011;28312;43.460;11.810;2023-11-22T15:10:38;1.00;;;0.68;;
42134;SDS011;28312;43.460;11.810;2023-11-22T15:14:41;1.92;;;1.17;;
42134;SDS011;28312;43.460;11.810;2023-11-22T15:18:45;1.88;;;1.02;;
42134;SDS011;28312;43.460;11.810;2023-11-22T15:22:49;2.17;;;0.95;;
42134;SDS011;28312;43.460;11.810;2023-11-22T15:26:53;3.28;;;1.77;;
42134;SDS011;28312;43.460;11.810;2023-11-22T15:30:56;3.08;;;1.20;;
42134;SDS011;28312;43.460;11.810;2023-11-22T15:35:02;2.58;;;1.05;;
42134;SDS011;28312;43.460;11.810;2023-11-22T15:43:19;2.55;;;1.23;;
42134;SDS011;28312;43.460;11.810;2023-11-22T15:47:23;3.65;;;0.93;;
42134;SDS011;28312;43.460;11.810;2023-11-22T15:51:26;4.07;;;1.35;;
42134;SDS011;28312;43.460;11.810;2023-11-22T15:55:30;2.53;;;1.42;;
42134;SDS011;28312;43.460;11.810;2023-11-22T15:59:33;2.17;;;1.42;;
42134;SDS011;28312;43.460;11.810;2023-11-22T16:03:37;2.00;;;1.17;;
42134;SDS011;28312;43.460;11.810;2023-11-22T16:07:44;1.30;;;0.90;;
42134;SDS011;28312;43.460;11.810;2023-11-22T16:11:48;1.60;;;0.93;;
42134;SDS011;28312;43.460;11.810;2023-11-22T16:15:52;1.60;;;0.98;;
42134;SDS011;28312;43.460;11.810;2023-11-22T16:19:56;2.80;;;0.90;;
42134;SDS011;28312;43.460;11.810;2023-11-22T16:28:08;3.03;;;0.80;;
42134;SDS011;28312;43.460;11.810;2023-11-22T16:32:11;3.80;;;2.95;;
42134;SDS011;28312;43.460;11.810;2023-11-22T16:36:15;9.95;;;7.28;;
42134;SDS011;28312;43.460;11.810;2023-11-22T16:40:18;2.58;;;1.40;;
42134;SDS011;28312;43.460;11.810;2023-11-22T16:44:23;3.20;;;2.30;;
42134;SDS011;28312;43.460;11.810;2023-11-22T16:48:27;3.30;;;1.60;;
42134;SDS011;28312;43.460;11.810;2023-11-22T16:52:31;4.32;;;1.58;;
42134;SDS011;28312;43.460;11.810;2023-11-22T16:56:35;2.40;;;1.25;;
42134;SDS011;28312;43.460;11.810;2023-11-22T17:00:39;2.63;;;1.30;;
42134;SDS011;28312;43.460;11.810;2023-11-22T17:04:43;2.90;;;1.50;;
42134;SDS011;28312;43.460;11.810;2023-11-22T17:08:47;2.80;;;1.67;;
42134;SDS011;28312;43.460;11.810;2023-11-22T17:12:51;2.67;;;1.10;;
42134;SDS011;28312;43.460;11.810;2023-11-22T17:16:56;6.03;;;1.45;;
42134;SDS011;28312;43.460;11.810;2023-11-22T17:21:00;4.10;;;1.00;;
42134;SDS011;28312;43.460;11.810;2023-11-22T17:25:04;2.60;;;1.20;;
42134;SDS011;28312;43.460;11.810;2023-11-22T17:29:13;4.53;;;1.40;;
42134;SDS011;28312;43.460;11.810;2023-11-22T17:33:16;1.70;;;1.27;;
42134;SDS011;28312;43.460;11.810;2023-11-22T17:37:19;3.42;;;2.58;;
42134;SDS011;28312;43.460;11.810;2023-11-22T17:41:23;7.07;;;1.52;;
42134;SDS011;28312;43.460;11.810;2023-11-22T17:45:29;2.45;;;1.38;;
42134;SDS011;28312;43.460;11.810;2023-11-22T17:49:32;4.93;;;1.70;;
42134;SDS011;28312;43.460;11.810;2023-11-22T17:53:36;5.10;;;1.60;;
42134;SDS011;28312;43.460;11.810;2023-11-22T17:57:39;3.25;;;1.55;;
42134;SDS011;28312;43.460;11.810;2023-11-22T18:01:43;2.88;;;1.33;;
42134;SDS011;28312;43.460;11.810;2023-11-22T18:05:47;3.10;;;1.60;;
42134;SDS011;28312;43.460;11.810;2023-11-22T18:09:52;3.17;;;1.65;;
42134;SDS011;28312;43.460;11.810;2023-11-22T18:13:56;6.03;;;1.90;;
42134;SDS011;28312;43.460;11.810;2023-11-22T18:18:04;2.45;;;1.20;;
42134;SDS011;28312;43.460;11.810;2023-11-22T18:22:10;7.03;;;1.58;;
42134;SDS011;28312;43.460;11.810;2023-11-22T18:26:15;4.75;;;2.22;;
42134;SDS011;28312;43.460;11.810;2023-11-22T18:30:19;2.97;;;1.90;;
42134;SDS011;28312;43.460;11.810;2023-11-22T18:34:23;3.38;;;1.42;;
42134;SDS011;28312;43.460;11.810;2023-11-22T18:38:33;3.40;;;1.70;;
42134;SDS011;28312;43.460;11.810;2023-11-22T18:42:36;2.53;;;1.48;;
42134;SDS011;28312;43.460;11.810;2023-11-22T18:46:40;4.85;;;1.38;;
42134;SDS011;28312;43.460;11.810;2023-11-22T18:50:43;1.77;;;1.02;;
42134;SDS011;28312;43.460;11.810;2023-11-22T18:54:48;2.67;;;1.02;;
42134;SDS011;28312;43.460;11.810;2023-11-22T18:58:51;2.50;;;1.40;;
42134;SDS011;28312;43.460;11.810;2023-11-22T19:02:55;6.13;;;1.40;;
42134;SDS011;28312;43.460;11.810;2023-11-22T19:06:59;4.53;;;2.05;;
42134;SDS011;28312;43.460;11.810;2023-11-22T19:11:02;5.13;;;1.15;;
42134;SDS011;28312;43.460;11.810;2023-11-22T19:15:06;2.70;;;1.35;;
42134;SDS011;28312;43.460;11.810;2023-11-22T19:19:11;4.18;;;1.30;;
42134;SDS011;28312;43.460;11.810;2023-11-22T19:23:14;3.47;;;1.38;;
42134;SDS011;28312;43.460;11.810;2023-11-22T19:27:18;2.85;;;1.50;;
42134;SDS011;28312;43.460;11.810;2023-11-22T19:31:21;1.83;;;1.10;;
42134;SDS011;28312;43.460;11.810;2023-11-22T19:35:25;3.13;;;1.38;;
42134;SDS011;28312;43.460;11.810;2023-11-22T19:39:29;2.58;;;1.50;;
42134;SDS011;28312;43.460;11.810;2023-11-22T19:43:32;2.25;;;1.35;;
42134;SDS011;28312;43.460;11.810;2023-11-22T19:47:37;2.58;;;1.02;;
42134;SDS011;28312;43.460;11.810;2023-11-22T19:51:42;2.60;;;1.30;;
42134;SDS011;28312;43.460;11.810;2023-11-22T19:55:45;2.72;;;1.33;;
42134;SDS011;28312;43.460;11.810;2023-11-22T19:59:51;1.83;;;1.10;;
42134;SDS011;28312;43.460;11.810;2023-11-22T20:03:54;3.55;;;1.25;;
42134;SDS011;28312;43.460;11.810;2023-11-22T20:07:58;2.25;;;1.17;;
42134;SDS011;28312;43.460;11.810;2023-11-22T20:12:03;2.30;;;1.20;;
42134;SDS011;28312;43.460;11.810;2023-11-22T20:16:08;2.83;;;1.70;;
42134;SDS011;28312;43.460;11.810;2023-11-22T20:20:13;1.73;;;1.00;;
42134;SDS011;28312;43.460;11.810;2023-11-22T20:24:17;2.90;;;1.23;;
42134;SDS011;28312;43.460;11.810;2023-11-22T20:28:20;2.10;;;1.15;;
42134;SDS011;28312;43.460;11.810;2023-11-22T20:32:25;2.45;;;1.25;;
42134;SDS011;28312;43.460;11.810;2023-11-22T20:36:28;3.70;;;1.90;;
42134;SDS011;28312;43.460;11.810;2023-11-22T20:40:32;4.40;;;1.35;;
42134;SDS011;28312;43.460;11.810;2023-11-22T20:44:35;2.95;;;1.65;;
42134;SDS011;28312;43.460;11.810;2023-11-22T20:48:39;2.60;;;1.33;;
42134;SDS011;28312;43.460;11.810;2023-11-22T20:52:44;4.03;;;1.30;;
42134;SDS011;28312;43.460;11.810;2023-11-22T20:56:48;2.80;;;1.50;;
42134;SDS011;28312;43.460;11.810;2023-11-22T21:00:52;4.47;;;1.73;;
42134;SDS011;28312;43.460;11.810;2023-11-22T21:04:56;2.72;;;1.40;;
42134;SDS011;28312;43.460;11.810;2023-11-22T21:08:59;4.13;;;1.92;;
42134;SDS011;28312;43.460;11.810;2023-11-22T21:13:03;2.80;;;1.40;;
42134;SDS011;28312;43.460;11.810;2023-11-22T21:17:06;5.30;;;1.38;;
42134;SDS011;28312;43.460;11.810;2023-11-22T21:21:12;2.45;;;1.10;;
42134;SDS011;28312;43.460;11.810;2023-11-22T21:25:16;2.47;;;1.42;;
42134;SDS011;28312;43.460;11.810;2023-11-22T21:29:19;1.98;;;1.00;;
42134;SDS011;28312;43.460;11.810;2023-11-22T21:33:23;2.30;;;1.05;;
42134;SDS011;28312;43.460;11.810;2023-11-22T21:37:28;2.08;;;1.13;;
42134;SDS011;28312;43.460;11.810;2023-11-22T21:41:31;2.72;;;1.30;;
42134;SDS011;28312;43.460;11.810;2023-11-22T21:45:34;5.43;;;1.33;;
42134;SDS011;28312;43.460;11.810;2023-11-22T21:49:38;2.15;;;1.10;;
42134;SDS011;28312;43.460;11.810;2023-11-22T21:53:41;3.33;;;1.30;;
42134;SDS011;28312;43.460;11.810;2023-11-22T21:57:45;1.70;;;1.00;;
42134;SDS011;28312;43.460;11.810;2023-11-22T22:01:49;3.00;;;1.25;;
42134;SDS011;28312;43.460;11.810;2023-11-22T22:05:54;2.22;;;0.90;;
42134;SDS011;28312;43.460;11.810;2023-11-22T22:09:57;1.60;;;0.93;;
42134;SDS011;28312;43.460;11.810;2023-11-22T22:14:01;1.75;;;0.75;;
42134;SDS011;28312;43.460;11.810;2023-11-22T22:18:05;2.45;;;1.10;;
42134;SDS011;28312;43.460;11.810;2023-11-22T22:22:08;2.10;;;1.00;;
42134;SDS011;28312;43.460;11.810;2023-11-22T22:26:14;2.20;;;1.13;;
42134;SDS011;28312;43.460;11.810;2023-11-22T22:30:18;1.80;;;1.03;;
42134;SDS011;28312;43.460;11.810;2023-11-22T22:34:22;3.05;;;1.23;;
42134;SDS011;28312;43.460;11.810;2023-11-22T22:38:25;3.05;;;1.23;;
42134;SDS011;28312;43.460;11.810;2023-11-22T22:42:28;2.08;;;1.40;;
42134;SDS011;28312;43.460;11.810;2023-11-22T22:46:32;2.78;;;1.45;;
42134;SDS011;28312;43.460;11.810;2023-11-22T22:50:36;5.25;;;0.95;;
42134;SDS011;28312;43.460;11.810;2023-11-22T22:54:39;1.98;;;0.95;;
42134;SDS011;28312;43.460;11.810;2023-11-22T22:58:43;2.65;;;1.40;;
42134;SDS011;28312;43.460;11.810;2023-11-22T23:02:46;2.28;;;1.20;;
42134;SDS011;28312;43.460;11.810;2023-11-22T23:06:50;3.47;;;1.08;;
42134;SDS011;28312;43.460;11.810;2023-11-22T23:10:54;2.50;;;1.35;;
42134;SDS011;28312;43.460;11.810;2023-11-22T23:14:58;1.80;;;1.10;;
42134;SDS011;28312;43.460;11.810;2023-11-22T23:19:03;2.10;;;1.10;;
42134;SDS011;28312;43.460;11.810;2023-11-22T23:23:17;1.88;;;1.10;;
42134;SDS011;28312;43.460;11.810;2023-11-22T23:27:23;3.88;;;1.95;;
42134;SDS011;28312;43.460;11.810;2023-11-22T23:31:34;2.55;;;1.17;;
42134;SDS011;28312;43.460;11.810;2023-11-22T23:35:42;2.72;;;1.25;;
42134;SDS011;28312;43.460;11.810;2023-11-22T23:39:47;3.40;;;1.52;;
42134;SDS011;28312;43.460;11.810;2023-11-22T23:43:54;4.20;;;1.30;;
42134;SDS011;28312;43.460;11.810;2023-11-22T23:47:57;2.28;;;1.30;;
42134;SDS011;28312;43.460;11.810;2023-11-22T23:52:01;4.07;;;1.50;;
42134;SDS011;28312;43.460;11.810;2023-11-22T23:56:05;2.55;;;1.40;;
